Time;durP1;ratioP1;P1;durP2;ratioP2;P2;SDS_P1;SDS_P2;PMS_P1;PMS_P2;Temp;Humidity;BMP_temperature;BMP_pressure;BME280_temperature;BME280_humidity;BME280_pressure;Samples;Min_cycle;Max_cycle;Signal;HPM_P1;HPM_P2
2021/04/11 00:01:00;;;;;;;8.98;2.30;;;;;;;10.13;66.60;98161.41;5030121;28;20402;-78
2021/04/11 00:03:28;;;;;;;3.08;1.48;;;;;;;10.16;66.54;98148.00;5030072;28;20383;-77
2021/04/11 00:05:54;;;;;;;2.47;1.35;;;;;;;10.18;66.59;98155.91;5030175;28;20063;-76
2021/04/11 00:08:21;;;;;;;2.22;2.03;;;;;;;10.14;66.86;98154.88;5012115;28;20022;-79
2021/04/11 00:10:53;;;;;;;4.15;1.73;;;;;;;10.10;67.06;98146.41;5029727;28;20470;-76
2021/04/11 00:13:23;;;;;;;3.42;1.83;;;;;;;10.04;67.04;98149.47;5029922;28;20465;-79
2021/04/11 00:15:49;;;;;;;4.93;1.63;;;;;;;9.98;67.32;98150.59;5012340;28;20037;-79
2021/04/11 00:18:14;;;;;;;5.88;2.30;;;;;;;9.94;67.23;98147.63;5030392;28;20032;-77
2021/04/11 00:20:40;;;;;;;7.07;1.92;;;;;;;9.91;66.99;98145.47;5029327;28;20057;-77
2021/04/11 00:23:05;;;;;;;2.75;1.58;;;;;;;9.91;67.20;98144.66;5029363;28;20096;-77
2021/04/11 00:25:36;;;;;;;2.28;1.63;;;;;;;9.91;67.03;98153.66;5029300;28;20075;-77
2021/04/11 00:28:03;;;;;;;2.83;1.70;;;;;;;9.88;67.47;98145.22;5029577;28;20415;-80
2021/04/11 00:30:29;;;;;;;2.72;2.45;;;;;;;9.81;68.37;98137.34;5029627;28;20467;-79
2021/04/11 00:32:57;;;;;;;4.32;1.90;;;;;;;9.89;68.85;98153.16;5012059;28;20031;-77
2021/04/11 00:35:23;;;;;;;5.20;1.88;;;;;;;9.98;68.82;98150.59;5029339;28;20038;-76
2021/04/11 00:37:48;;;;;;;8.50;2.30;;;;;;;10.02;68.64;98148.94;5029437;28;20033;-78
2021/04/11 00:40:21;;;;;;;6.03;2.13;;;;;;;9.98;69.16;98139.69;5029827;28;20032;-78
2021/04/11 00:42:56;;;;;;;4.85;1.85;;;;;;;9.97;69.18;98136.13;5029755;28;20030;-77
2021/04/11 00:46:01;;;;;;;10.73;2.17;;;;;;;10.05;69.16;98137.44;5029852;28;20541;-77
2021/04/11 00:48:28;;;;;;;3.83;2.08;;;;;;;10.11;69.14;98125.34;4989602;28;20119;-76
2021/04/11 00:51:09;;;;;;;2.67;1.63;;;;;;;10.07;68.95;98119.66;5011893;28;20533;-78
2021/04/11 00:53:35;;;;;;;2.72;1.63;;;;;;;10.05;69.42;98129.25;5030467;28;20033;-79
2021/04/11 00:56:02;;;;;;;2.85;1.98;;;;;;;10.00;69.65;98129.25;5029652;28;20490;-78
2021/04/11 00:58:30;;;;;;;3.13;1.63;;;;;;;10.03;69.78;98128.69;5026503;28;20017;-79
2021/04/11 01:00:56;;;;;;;4.68;1.80;;;;;;;10.02;69.83;98132.53;5011563;28;20037;-77
2021/04/11 01:03:27;;;;;;;1.92;1.50;;;;;;;10.04;69.82;98111.19;5030178;28;20052;-78
2021/04/11 01:05:54;;;;;;;3.72;1.33;;;;;;;10.02;70.00;98116.16;5029003;28;20029;-79
2021/04/11 01:08:26;;;;;;;4.88;1.77;;;;;;;10.01;69.81;98125.44;5028897;28;20029;-78
2021/04/11 01:11:09;;;;;;;9.27;2.03;;;;;;;9.91;69.81;98122.78;5010410;28;20403;-78
2021/04/11 01:13:38;;;;;;;1.95;1.63;;;;;;;9.87;70.10;98125.28;5009746;28;20029;-77
2021/04/11 01:16:04;;;;;;;3.28;2.03;;;;;;;9.85;70.42;98121.22;5010198;28;20026;-78
2021/04/11 01:18:30;;;;;;;2.20;1.75;;;;;;;9.80;70.22;98113.88;4993189;28;20454;-78
2021/04/11 01:20:56;;;;;;;1.60;1.50;;;;;;;9.80;71.10;98119.34;5009938;28;20037;-76
2021/04/11 01:23:28;;;;;;;3.88;1.50;;;;;;;9.83;71.99;98113.31;5010921;28;20029;-78
2021/04/11 01:25:58;;;;;;;2.42;1.27;;;;;;;9.85;72.53;98110.28;5015994;28;20030;-78
2021/04/11 01:28:32;;;;;;;3.20;1.52;;;;;;;9.91;72.84;98107.22;4996019;28;20117;-80
2021/04/11 01:31:05;;;;;;;4.10;1.38;;;;;;;9.81;73.44;98099.09;5018985;28;20113;-78
2021/04/11 01:33:32;;;;;;;3.85;1.33;;;;;;;9.82;73.44;98102.66;5025972;28;20025;-79
2021/04/11 01:35:59;;;;;;;2.70;1.58;;;;;;;9.83;73.41;98096.09;5029382;28;20033;-80
2021/04/11 01:38:27;;;;;;;1.55;1.35;;;;;;;9.80;73.84;98097.50;5020311;28;20026;-80
2021/04/11 01:41:04;;;;;;;2.35;1.30;;;;;;;9.79;73.87;98098.59;5026096;28;20041;-77
2021/04/11 01:43:33;;;;;;;1.17;1.08;;;;;;;9.77;73.71;98097.25;5029252;28;20397;-81
2021/04/11 01:45:59;;;;;;;2.63;1.98;;;;;;;9.73;73.61;98102.47;5022946;28;20057;-80
2021/04/11 01:48:24;;;;;;;3.65;2.10;;;;;;;9.79;73.70;98089.56;5030371;28;20168;-81
2021/04/11 01:50:51;;;;;;;5.65;1.50;;;;;;;9.74;74.14;98098.66;5014674;28;20049;-81
2021/04/11 01:53:18;;;;;;;3.40;1.33;;;;;;;9.73;74.20;98088.00;5014689;28;20486;-79
2021/04/11 01:55:43;;;;;;;2.05;1.48;;;;;;;9.67;74.23;98076.31;5032524;28;20022;-78
2021/04/11 01:58:11;;;;;;;3.08;1.40;;;;;;;9.67;74.53;98090.78;5033348;28;20029;-80
2021/04/11 02:00:41;;;;;;;1.92;1.27;;;;;;;9.68;74.56;98084.19;5015713;28;20100;-78
2021/04/11 02:03:12;;;;;;;6.90;2.17;;;;;;;9.69;74.50;98085.84;5032789;28;20048;-78
2021/04/11 02:05:40;;;;;;;2.45;1.33;;;;;;;9.71;74.22;98071.09;5033103;28;20029;-78
2021/04/11 02:08:09;;;;;;;2.47;1.45;;;;;;;9.71;74.54;98071.09;5033090;28;20421;-83
2021/04/11 02:10:39;;;;;;;3.75;1.23;;;;;;;9.67;74.54;98076.31;5032721;28;20038;-81
2021/04/11 02:13:06;;;;;;;2.35;2.03;;;;;;;9.64;74.53;98069.50;5032529;28;20029;-80
2021/04/11 02:15:38;;;;;;;2.45;1.33;;;;;;;9.60;74.19;98079.34;5032274;28;20208;-77
2021/04/11 02:18:04;;;;;;;5.95;1.50;;;;;;;9.62;74.13;98068.13;5015662;28;20490;-78
2021/04/11 02:20:31;;;;;;;3.17;1.55;;;;;;;9.63;74.15;98059.66;5032958;28;20056;-80
2021/04/11 02:22:57;;;;;;;3.75;1.80;;;;;;;9.60;73.99;98062.97;5015013;28;20041;-80
2021/04/11 02:25:27;;;;;;;6.88;1.58;;;;;;;9.55;74.15;98067.66;5032971;28;20451;-81
2021/04/11 02:27:55;;;;;;;2.58;1.13;;;;;;;9.55;74.03;98068.47;5032770;28;20465;-80
2021/04/11 02:30:22;;;;;;;2.80;1.60;;;;;;;9.56;73.79;98058.34;5032602;28;20033;-81
2021/04/11 02:32:48;;;;;;;2.92;1.70;;;;;;;9.52;73.84;98055.38;5032832;28;20025;-82
2021/04/11 02:35:20;;;;;;;1.50;1.23;;;;;;;9.55;73.51;98060.25;5032821;28;20060;-80
2021/04/11 02:37:50;;;;;;;1.98;1.30;;;;;;;9.52;73.68;98069.03;5032531;28;20075;-79
2021/04/11 02:40:19;;;;;;;2.45;1.17;;;;;;;9.60;73.01;98060.25;5014760;28;20116;-82
2021/04/11 02:42:45;;;;;;;1.30;1.10;;;;;;;9.58;72.81;98059.72;5014750;28;20029;-80
2021/04/11 02:45:15;;;;;;;4.38;2.25;;;;;;;9.53;73.19;98059.75;5032345;28;20116;-82
2021/04/11 02:47:41;;;;;;;2.08;1.42;;;;;;;9.54;73.00;98061.38;5032026;28;20022;-81
2021/04/11 02:50:07;;;;;;;1.92;1.70;;;;;;;9.49;72.91;98061.41;5014009;28;20509;-78
2021/04/11 02:52:39;;;;;;;2.05;1.50;;;;;;;9.53;72.79;98059.75;5032060;28;20045;-79
2021/04/11 02:55:07;;;;;;;3.25;2.05;;;;;;;9.51;72.88;98061.97;5032323;28;20052;-80
2021/04/11 02:57:33;;;;;;;2.13;1.52;;;;;;;9.47;72.97;98055.44;5032492;28;20021;-80
2021/04/11 02:59:58;;;;;;;5.40;1.98;;;;;;;9.50;72.78;98048.59;5014568;28;20596;-82
2021/04/11 03:02:24;;;;;;;4.45;1.58;;;;;;;9.49;72.67;98041.50;5032500;28;20021;-80
2021/04/11 03:04:51;;;;;;;2.50;1.55;;;;;;;9.52;72.63;98049.91;5032399;28;20451;-80
2021/04/11 03:07:28;;;;;;;3.28;1.83;;;;;;;9.54;72.22;98045.00;5032001;28;20037;-79
2021/04/11 03:10:13;;;;;;;2.35;2.03;;;;;;;9.54;72.01;98050.47;5014329;28;20029;-78
2021/04/11 03:12:39;;;;;;;2.88;1.25;;;;;;;9.51;71.88;98039.31;5032804;28;20490;-80
2021/04/11 03:15:09;;;;;;;4.93;1.63;;;;;;;9.59;71.44;98039.50;5032165;28;20075;-77
2021/04/11 03:17:34;;;;;;;2.85;1.20;;;;;;;9.56;71.33;98042.78;5014478;28;20029;-79
2021/04/11 03:20:08;;;;;;;2.13;1.77;;;;;;;9.63;71.03;98042.47;5032254;28;20026;-78
2021/04/11 03:22:35;;;;;;;6.05;2.15;;;;;;;9.64;70.99;98044.09;5013877;28;20399;-81
2021/04/11 03:25:04;;;;;;;3.20;1.88;;;;;;;9.62;70.96;98035.38;5031215;28;20033;-79
2021/04/11 03:27:44;;;;;;;1.42;1.23;;;;;;;9.61;70.90;98044.69;5013941;28;20961;-80
2021/04/11 03:30:22;;;;;;;3.13;1.75;;;;;;;9.61;70.59;98040.03;5014274;28;20116;-79
2021/04/11 03:32:51;;;;;;;4.82;1.85;;;;;;;9.66;69.94;98026.31;5013788;28;20029;-76
2021/04/11 03:35:21;;;;;;;2.72;1.60;;;;;;;9.66;69.45;98037.25;5030795;28;20490;-78
2021/04/11 03:37:50;;;;;;;2.65;1.60;;;;;;;9.65;69.41;98035.59;5013951;28;20498;-80
2021/04/11 03:40:21;;;;;;;2.67;1.35;;;;;;;9.69;69.15;98042.13;5033160;28;20395;-78
2021/04/11 03:42:49;;;;;;;3.08;1.38;;;;;;;9.70;68.92;98037.50;5040887;28;20029;-79
2021/04/11 03:45:16;;;;;;;3.63;1.65;;;;;;;9.70;68.70;98037.50;5033220;28;20026;-81
2021/04/11 03:47:48;;;;;;;1.67;1.20;;;;;;;9.72;68.86;98032.53;5014261;28;20461;-83
2021/04/11 03:50:19;;;;;;;1.45;1.17;;;;;;;9.68;68.91;98026.84;5031767;28;20503;-83
2021/04/11 03:53:04;;;;;;;6.82;1.95;;;;;;;9.67;68.78;98027.97;5031736;28;20029;-83
2021/04/11 03:55:35;;;;;;;7.80;2.47;;;;;;;9.72;68.41;98020.81;5031310;28;20014;-82
2021/04/11 03:58:06;;;;;;;4.20;1.25;;;;;;;9.69;68.59;98033.13;5024145;28;20033;-82
2021/04/11 04:00:37;;;;;;;1.80;1.38;;;;;;;9.65;68.29;98035.59;5028906;28;20030;-80
2021/04/11 04:03:07;;;;;;;3.25;1.77;;;;;;;9.63;67.95;98032.34;5012689;28;20056;-78
2021/04/11 04:05:35;;;;;;;2.33;1.75;;;;;;;9.66;67.92;98042.72;5030654;28;20040;-82
2021/04/11 04:08:01;;;;;;;5.50;2.47;;;;;;;9.60;68.05;98043.84;5030814;28;20034;-82
2021/04/11 04:10:31;;;;;;;4.88;2.08;;;;;;;9.55;68.06;98035.69;5030263;28;20036;-81
2021/04/11 04:13:06;;;;;;;1.98;1.70;;;;;;;9.62;67.84;98052.56;5029626;28;20071;-80
2021/04/11 04:15:34;;;;;;;1.77;1.20;;;;;;;9.64;67.76;98050.38;5027958;28;20047;-81
2021/04/11 04:18:28;;;;;;;4.63;1.75;;;;;;;9.53;68.12;98048.81;4993746;28;20030;-79
2021/04/11 04:21:18;;;;;;;1.45;1.35;;;;;;;9.53;68.01;98045.28;5010493;28;20088;-78
2021/04/11 04:24:02;;;;;;;2.80;1.83;;;;;;;9.57;68.35;98060.81;4993368;28;20029;-79
2021/04/11 04:26:51;;;;;;;2.00;1.80;;;;;;;9.60;68.16;98073.06;5010730;28;20498;-79
2021/04/11 04:29:25;;;;;;;4.40;1.88;;;;;;;9.53;68.71;98064.38;5011009;28;20390;-81
2021/04/11 04:32:22;;;;;;;1.48;1.10;;;;;;;9.52;68.88;98069.03;5010886;28;20034;-77
2021/04/11 04:35:23;;;;;;;8.43;1.88;;;;;;;9.47;69.59;98071.00;5012683;28;20119;-78
2021/04/11 04:37:52;;;;;;;3.63;2.13;;;;;;;9.47;70.72;98076.47;5013023;28;20132;-84
2021/04/11 04:40:40;;;;;;;1.63;1.48;;;;;;;9.38;71.33;98080.91;5030534;28;20025;-80
2021/04/11 04:43:20;;;;;;;2.35;1.48;;;;;;;9.34;72.30;98083.38;5011940;28;20049;-81
2021/04/11 04:46:01;;;;;;;1.90;1.67;;;;;;;9.24;73.57;98064.34;5030704;28;20030;-80
2021/04/11 04:48:31;;;;;;;2.15;1.63;;;;;;;9.14;74.68;98086.25;5030572;28;20120;-79
2021/04/11 04:51:04;;;;;;;3.55;1.38;;;;;;;9.10;75.16;98079.72;5012416;28;20046;-82
2021/04/11 04:53:42;;;;;;;2.40;1.25;;;;;;;9.03;76.21;98092.88;5030342;28;20067;-77
2021/04/11 04:56:14;;;;;;;10.30;3.50;;;;;;;9.03;77.01;98098.31;5012406;28;20092;-76
2021/04/11 04:58:43;;;;;;;2.83;2.22;;;;;;;8.93;77.44;98104.66;5013975;28;20044;-76
2021/04/11 05:01:18;;;;;;;5.57;2.55;;;;;;;8.93;77.48;98110.09;5031083;28;20033;-76
2021/04/11 05:03:50;;;;;;;1.27;1.17;;;;;;;8.92;76.90;98102.22;5029981;28;20033;-74
2021/04/11 05:06:20;;;;;;;2.92;1.40;;;;;;;8.89;77.04;98100.88;5012135;28;20029;-76
2021/04/11 05:08:48;;;;;;;4.70;1.60;;;;;;;8.82;77.47;98103.06;5029759;28;20037;-77
2021/04/11 05:11:28;;;;;;;2.78;1.40;;;;;;;8.86;78.00;98103.34;5011716;28;20053;-76
2021/04/11 05:14:01;;;;;;;1.67;1.25;;;;;;;8.78;78.00;98106.63;5029087;28;20024;-74
2021/04/11 05:17:01;;;;;;;3.40;1.48;;;;;;;8.77;78.32;98107.75;5029945;28;20079;-76
2021/04/11 05:19:35;;;;;;;2.80;1.23;;;;;;;8.79;78.01;98114.56;5016069;28;20045;-76
2021/04/11 05:22:13;;;;;;;1.20;1.10;;;;;;;8.84;77.63;98109.06;5030035;28;20029;-77
2021/04/11 05:24:44;;;;;;;3.15;1.63;;;;;;;8.79;77.31;98121.91;5032920;28;20040;-76
2021/04/11 05:27:18;;;;;;;2.47;1.63;;;;;;;8.83;77.05;98121.09;5033774;28;20040;-77
2021/04/11 05:30:00;;;;;;;2.38;1.50;;;;;;;8.89;77.11;98124.59;5015490;28;20029;-76
2021/04/11 05:32:26;;;;;;;3.45;1.48;;;;;;;8.91;77.20;98125.13;5015817;28;20041;-76
2021/04/11 05:34:51;;;;;;;3.20;1.50;;;;;;;8.97;76.74;98115.81;5033415;28;20031;-76
2021/04/11 05:37:35;;;;;;;2.83;1.50;;;;;;;9.02;76.02;98134.91;5033334;28;20030;-77
2021/04/11 05:40:24;;;;;;;2.47;1.40;;;;;;;8.97;76.18;98137.63;5015442;28;20168;-75
2021/04/11 05:42:57;;;;;;;3.35;1.27;;;;;;;9.04;75.92;98132.69;5033429;28;20056;-78
2021/04/11 05:45:29;;;;;;;4.03;1.52;;;;;;;9.10;75.30;98137.03;5033339;28;20032;-77
2021/04/11 05:48:01;;;;;;;2.00;1.13;;;;;;;9.06;75.02;98135.94;5014745;28;20037;-75
2021/04/11 05:50:41;;;;;;;2.47;1.10;;;;;;;9.03;74.83;98141.97;5032475;28;20611;-76
2021/04/11 05:53:09;;;;;;;1.92;1.17;;;;;;;9.07;74.88;98134.88;5033040;28;20076;-76
2021/04/11 05:55:39;;;;;;;2.15;1.42;;;;;;;9.15;74.57;98139.72;5013191;28;20091;-77
2021/04/11 05:58:14;;;;;;;4.65;1.55;;;;;;;9.19;74.63;98139.97;5037138;28;20056;-78
2021/04/11 06:00:54;;;;;;;1.52;1.05;;;;;;;9.14;74.55;98149.03;5023923;28;20029;-77
2021/04/11 06:03:23;;;;;;;3.72;1.73;;;;;;;9.06;74.50;98138.69;5033504;28;20021;-77
2021/04/11 06:06:01;;;;;;;8.57;1.23;;;;;;;9.13;74.72;98155.56;5029966;28;20110;-76
2021/04/11 06:08:26;;;;;;;3.08;1.33;;;;;;;9.16;74.73;98152.28;5029265;28;20447;-77
2021/04/11 06:11:04;;;;;;;2.42;1.58;;;;;;;9.09;74.81;98147.13;5013908;28;20026;-76
2021/04/11 06:14:05;;;;;;;2.55;1.23;;;;;;;9.15;74.75;98153.38;5030187;28;20049;-77
2021/04/11 06:16:32;;;;;;;3.65;1.58;;;;;;;9.08;75.09;98155.59;5015585;28;20134;-76
2021/04/11 06:19:00;;;;;;;1.20;1.10;;;;;;;9.11;74.99;98155.84;5032047;28;20501;-79
2021/04/11 06:21:57;;;;;;;2.53;1.30;;;;;;;9.25;74.87;98163.41;5028744;28;20375;-81
2021/04/11 06:24:25;;;;;;;2.25;0.88;;;;;;;9.22;75.21;98164.78;5002675;28;20124;-77
2021/04/11 06:27:16;;;;;;;1.13;1.00;;;;;;;9.30;75.06;98166.13;5031255;28;20013;-76
2021/04/11 06:30:22;;;;;;;2.15;1.52;;;;;;;9.27;75.12;98170.22;5030716;28;20025;-77
2021/04/11 06:32:52;;;;;;;3.55;1.35;;;;;;;9.21;75.63;98170.56;5028043;28;20048;-77
2021/04/11 06:35:24;;;;;;;1.73;1.48;;;;;;;9.24;75.20;98170.00;5030511;28;20025;-77
2021/04/11 06:38:00;;;;;;;2.70;1.23;;;;;;;9.26;74.93;98168.59;5028938;28;20025;-78
2021/04/11 06:40:41;;;;;;;2.38;1.00;;;;;;;9.33;75.20;98168.28;5032074;28;20026;-83
2021/04/11 06:43:23;;;;;;;2.25;1.13;;;;;;;9.37;74.66;98164.69;5035742;28;20032;-87
2021/04/11 06:46:03;;;;;;;3.97;2.00;;;;;;;9.38;74.80;98165.53;5035282;28;20030;-78
2021/04/11 06:48:28;;;;;;;2.55;1.48;;;;;;;9.48;74.46;98166.28;5029387;28;20033;-84
2021/04/11 06:51:22;;;;;;;2.75;1.55;;;;;;;9.47;74.93;98166.56;5012754;28;20041;-77
2021/04/11 06:53:53;;;;;;;2.03;1.30;;;;;;;9.39;75.56;98173.44;5028556;28;20033;-80
2021/04/11 06:56:37;;;;;;;2.58;2.38;;;;;;;9.41;76.29;98179.44;5031251;28;20029;-79
2021/04/11 06:59:25;;;;;;;5.05;2.45;;;;;;;9.62;75.55;98178.19;5030287;28;20118;-77
2021/04/11 07:02:27;;;;;;;2.00;1.55;;;;;;;9.60;75.96;98188.59;5028660;28;20490;-79
2021/04/11 07:04:56;;;;;;;2.75;1.70;;;;;;;9.44;76.93;98187.06;5029018;28;20546;-80
2021/04/11 07:07:33;;;;;;;3.15;1.67;;;;;;;9.55;76.66;98194.06;5012930;28;20053;-79
2021/04/11 07:10:18;;;;;;;1.63;1.52;;;;;;;9.64;76.51;98194.31;5013276;28;20433;-79
2021/04/11 07:13:14;;;;;;;1.80;1.33;;;;;;;9.72;76.56;98198.34;5031289;28;20087;-83
2021/04/11 07:16:03;;;;;;;3.50;1.45;;;;;;;9.79;77.41;98193.38;5013839;28;20040;-82
2021/04/11 07:18:57;;;;;;;3.45;2.10;;;;;;;9.81;77.51;98191.16;5029166;28;20022;-83
2021/04/11 07:21:40;;;;;;;2.30;1.38;;;;;;;9.86;78.68;98194.69;5030174;28;20104;-83
2021/04/11 07:24:39;;;;;;;4.25;1.50;;;;;;;9.76;78.63;98197.50;5028038;28;20059;-87
2021/04/11 07:27:38;;;;;;;1.92;1.45;;;;;;;9.96;79.44;98202.00;5013035;28;20025;-79
2021/04/11 07:30:13;;;;;;;1.98;1.33;;;;;;;10.05;79.20;98197.56;5030215;28;20030;-85
2021/04/11 07:32:57;;;;;;;1.63;1.30;;;;;;;10.10;78.92;98202.97;5031356;28;20482;-84
2021/04/11 07:35:31;;;;;;;1.90;1.38;;;;;;;9.92;80.07;98198.19;5031226;28;20109;-82
2021/04/11 07:38:18;;;;;;;1.77;1.67;;;;;;;9.84;81.76;98202.34;5030290;28;20060;-77
2021/04/11 07:40:43;;;;;;;2.63;2.35;;;;;;;9.79;82.91;98209.78;5030685;28;20080;-78
2021/04/11 07:43:18;;;;;;;1.80;1.63;;;;;;;9.81;82.98;98213.03;5029015;28;20386;-78
2021/04/11 07:46:11;;;;;;;2.78;1.58;;;;;;;9.77;83.83;98211.97;5032414;28;20029;-77
2021/04/11 07:48:52;;;;;;;3.30;1.80;;;;;;;9.67;85.03;98216.41;5013096;28;20048;-86
2021/04/11 07:51:54;;;;;;;2.78;1.38;;;;;;;9.84;85.23;98196.06;5015241;28;20055;-87
2021/04/11 07:54:44;;;;;;;1.58;1.35;;;;;;;9.98;85.25;98214.28;4999432;28;20037;-87
2021/04/11 07:57:27;;;;;;;3.15;1.45;;;;;;;10.01;85.37;98212.88;5028679;28;20074;-76
2021/04/11 08:00:05;;;;;;;2.53;1.63;;;;;;;9.98;86.68;98216.19;5028009;28;20033;-76
2021/04/11 08:03:08;;;;;;;3.00;1.83;;;;;;;9.96;85.98;98216.47;5028085;28;20034;-74
2021/04/11 08:05:52;;;;;;;2.17;1.98;;;;;;;9.72;87.61;98221.00;5027155;28;20490;-75
2021/04/11 08:08:39;;;;;;;2.45;2.05;;;;;;;9.46;88.89;98223.06;5028941;28;20083;-74
2021/04/11 08:11:07;;;;;;;6.30;2.17;;;;;;;9.27;90.52;98230.25;5028200;28;20466;-76
2021/04/11 08:13:51;;;;;;;1.88;1.55;;;;;;;9.34;90.34;98225.31;5014191;28;20513;-76
2021/04/11 08:16:29;;;;;;;2.38;1.92;;;;;;;9.17;91.19;98222.13;5040063;28;20037;-80
2021/04/11 08:19:09;;;;;;;3.90;2.03;;;;;;;9.28;91.07;98226.44;5035778;28;20207;-79
2021/04/11 08:21:43;;;;;;;2.20;1.50;;;;;;;9.34;90.14;98229.97;5006258;28;21336;-76
2021/04/11 08:24:28;;;;;;;1.92;1.73;;;;;;;9.49;89.82;98227.97;5026515;28;20079;-76
2021/04/11 08:27:12;;;;;;;2.65;1.80;;;;;;;9.63;91.11;98231.72;5026489;28;20041;-78
2021/04/11 08:30:11;;;;;;;2.85;1.50;;;;;;;9.64;89.00;98238.81;5028190;28;20033;-77
2021/04/11 08:32:54;;;;;;;2.10;1.40;;;;;;;9.55;88.93;98235.03;5027995;28;20045;-78
2021/04/11 08:35:39;;;;;;;3.38;1.50;;;;;;;9.51;89.94;98231.25;5026589;28;20041;-78
2021/04/11 08:38:51;;;;;;;6.22;1.50;;;;;;;9.31;91.02;98236.81;5029716;28;20446;-78
2021/04/11 08:41:40;;;;;;;3.83;1.45;;;;;;;9.05;92.44;98227.09;4947825;28;20035;-77
2021/04/11 08:44:19;;;;;;;2.10;1.17;;;;;;;9.11;93.28;98229.50;5026524;28;20356;-78
2021/04/11 08:46:57;;;;;;;5.05;1.77;;;;;;;9.18;93.80;98242.06;5026526;28;20030;-77
2021/04/11 08:49:25;;;;;;;5.07;1.75;;;;;;;9.14;92.47;98234.44;5027257;28;20029;-86
2021/04/11 08:52:09;;;;;;;2.35;1.85;;;;;;;9.06;94.09;98232.28;5026592;28;20037;-78
2021/04/11 08:54:55;;;;;;;3.50;1.73;;;;;;;9.21;93.24;98230.59;5008815;28;20441;-81
2021/04/11 08:57:39;;;;;;;2.75;1.77;;;;;;;9.24;91.83;98233.56;5027739;28;20040;-79
2021/04/11 09:00:11;;;;;;;1.52;1.42;;;;;;;9.27;91.75;98235.72;5013425;28;20407;-77
2021/04/11 09:03:07;;;;;;;4.00;1.40;;;;;;;9.36;90.29;98227.78;5014131;28;20432;-81
2021/04/11 09:05:48;;;;;;;5.40;1.42;;;;;;;9.46;91.00;98223.06;5031143;28;20045;-81
2021/04/11 09:08:23;;;;;;;2.25;1.70;;;;;;;9.65;90.61;98226.78;5031022;28;20033;-84
2021/04/11 09:10:54;;;;;;;4.15;1.50;;;;;;;9.48;90.76;98226.34;5031543;28;20029;-79
2021/04/11 09:13:57;;;;;;;3.97;2.90;;;;;;;9.39;91.61;98236.22;5013449;28;20517;-82
2021/04/11 09:16:44;;;;;;;6.55;3.42;;;;;;;9.61;90.69;98225.75;5031615;28;20029;-76
2021/04/11 09:19:15;;;;;;;;;;;;;;;9.66;90.13;98228.44;5013397;28;20509;-76
2021/04/11 09:21:59;;;;;;;8.02;3.40;;;;;;;9.71;89.12;98229.50;5028753;28;19924;-76
2021/04/11 09:24:37;;;;;;;54.25;34.63;;;;;;;9.75;90.01;98231.38;5029724;28;20026;-77
2021/04/11 09:27:47;;;;;;;17.98;11.57;;;;;;;9.75;89.65;98233.28;5030540;28;20026;-85
2021/04/11 09:30:46;;;;;;;3.85;2.72;;;;;;;9.83;89.15;98224.50;5004620;28;20037;-75
2021/04/11 09:34:02;;;;;;;6.00;3.88;;;;;;;9.78;88.88;98227.25;5030455;28;20044;-79
2021/04/11 09:36:57;;;;;;;6.70;4.53;;;;;;;9.66;89.58;98230.34;4971510;28;20075;-76
2021/04/11 09:39:58;;;;;;;4.90;2.40;;;;;;;9.52;90.19;98227.41;5029146;28;20474;-75
2021/04/11 09:42:39;;;;;;;5.00;3.17;;;;;;;9.75;90.11;98222.34;5012783;28;20053;-76
2021/04/11 09:45:34;;;;;;;2.92;2.28;;;;;;;9.47;91.25;98224.72;5011843;28;20037;-75
2021/04/11 09:48:12;;;;;;;4.82;2.97;;;;;;;9.44;91.51;98228.00;5029032;28;20044;-76
2021/04/11 09:50:54;;;;;;;2.33;2.00;;;;;;;9.47;91.97;98226.63;5029669;28;20083;-76
2021/04/11 09:53:23;;;;;;;5.40;3.40;;;;;;;9.68;91.25;98218.03;5030192;28;20516;-75
2021/04/11 09:56:09;;;;;;;4.13;2.78;;;;;;;9.78;91.12;98227.25;5028513;28;20029;-76
2021/04/11 09:58:50;;;;;;;4.45;2.55;;;;;;;9.78;90.98;98224.53;5030128;28;20029;-77
2021/04/11 10:01:30;;;;;;;3.92;2.42;;;;;;;9.83;90.41;98221.78;5031412;28;20065;-76
2021/04/11 10:04:18;;;;;;;7.35;3.05;;;;;;;9.83;90.75;98221.78;5028467;28;20033;-75
2021/04/11 10:07:27;;;;;;;4.22;2.92;;;;;;;9.64;91.76;98224.34;5029295;28;20043;-75
2021/04/11 10:10:15;;;;;;;5.95;3.38;;;;;;;9.49;92.13;98222.50;5028443;28;20037;-78
2021/04/11 10:13:02;;;;;;;4.03;2.85;;;;;;;9.49;91.33;98227.97;5014641;28;20028;-85
2021/04/11 10:15:43;;;;;;;6.20;3.10;;;;;;;9.48;92.36;98220.91;5013717;28;20088;-79
2021/04/11 10:18:45;;;;;;;4.05;2.78;;;;;;;9.45;92.56;98218.72;5015058;28;20033;-77
2021/04/11 10:21:32;;;;;;;4.72;2.55;;;;;;;9.66;91.67;98214.78;5049404;28;20029;-87
2021/04/11 10:24:06;;;;;;;4.07;3.63;;;;;;;9.95;91.38;98205.84;5052379;28;20017;-85
2021/04/11 10:26:48;;;;;;;9.18;5.55;;;;;;;9.87;91.96;98203.69;5035469;28;20036;-85
2021/04/11 10:29:18;;;;;;;5.15;4.20;;;;;;;9.94;92.05;98196.81;5040120;28;20037;-87
2021/04/11 10:31:49;;;;;;;6.82;3.92;;;;;;;9.84;91.10;98205.06;5024007;28;20022;-79
2021/04/11 10:34:48;;;;;;;7.30;3.83;;;;;;;9.92;90.95;98203.66;5030185;28;20040;-78
2021/04/11 10:37:29;;;;;;;6.95;4.13;;;;;;;10.00;90.43;98194.84;5031020;28;20441;-84
2021/04/11 10:40:19;;;;;;;7.22;3.63;;;;;;;10.09;89.33;98209.53;5030288;28;20030;-82
2021/04/11 10:42:50;;;;;;;8.85;4.43;;;;;;;10.00;88.75;98208.50;5027889;28;20052;-81
2021/04/11 10:45:38;;;;;;;6.80;4.18;;;;;;;10.01;89.28;98208.25;5030409;28;20048;-77
2021/04/11 10:48:22;;;;;;;8.35;4.85;;;;;;;10.05;89.20;98211.22;5030256;28;20033;-77
2021/04/11 10:50:56;;;;;;;7.47;4.60;;;;;;;10.03;88.89;98208.75;5012780;28;20064;-76
2021/04/11 10:53:47;;;;;;;7.80;4.68;;;;;;;10.03;88.28;98222.44;5029343;28;20769;-78
2021/04/11 10:56:30;;;;;;;6.70;4.95;;;;;;;10.42;86.66;98213.38;5030026;28;20040;-78
2021/04/11 10:59:34;;;;;;;5.40;4.32;;;;;;;10.27;87.21;98219.00;5029604;28;20798;-75
2021/04/11 11:02:18;;;;;;;5.85;3.50;;;;;;;10.20;85.15;98214.69;5027398;28;20037;-78
2021/04/11 11:05:29;;;;;;;6.47;4.30;;;;;;;10.21;86.12;98212.75;5029320;28;20743;-76
2021/04/11 11:08:16;;;;;;;6.88;4.63;;;;;;;10.26;86.62;98215.44;5026504;28;20383;-78
2021/04/11 11:10:44;;;;;;;;;;;;;;;10.13;86.08;98216.91;5028852;28;20033;-76
2021/04/11 11:13:23;;;;;;;5.68;3.40;;;;;;;10.18;87.74;98219.59;5028027;28;19924;-76
2021/04/11 11:16:14;;;;;;;5.93;3.83;;;;;;;10.06;87.17;98210.09;5028537;28;20036;-76
2021/04/11 11:19:04;;;;;;;7.40;3.05;;;;;;;10.17;87.84;98214.44;5010532;28;20549;-75
2021/04/11 11:21:39;;;;;;;4.97;3.83;;;;;;;10.25;88.07;98208.34;5025111;28;20080;-75
2021/04/11 11:24:18;;;;;;;5.72;4.65;;;;;;;10.27;86.44;98214.34;5027602;28;20034;-75
2021/04/11 11:27:02;;;;;;;5.35;3.67;;;;;;;10.25;88.27;98207.50;5027693;28;20033;-77
2021/04/11 11:30:02;;;;;;;6.00;3.58;;;;;;;10.21;88.83;98207.31;5026806;28;20069;-76
2021/04/11 11:32:33;;;;;;;4.38;3.10;;;;;;;10.19;88.74;98204.84;4960989;28;20080;-76
2021/04/11 11:35:04;;;;;;;5.15;3.22;;;;;;;10.28;89.04;98207.75;5027402;28;20025;-77
2021/04/11 11:38:03;;;;;;;4.80;3.75;;;;;;;10.42;88.37;98208.75;5025572;28;20033;-75
2021/04/11 11:40:34;;;;;;;5.53;3.85;;;;;;;10.16;87.32;98215.53;5027740;28;20491;-78
2021/04/11 11:43:12;;;;;;;9.50;5.25;;;;;;;10.26;88.09;98218.19;5027656;28;20033;-76
2021/04/11 11:45:37;;;;;;;4.47;3.53;;;;;;;10.24;87.59;98211.38;5026969;28;20041;-76
2021/04/11 11:48:40;;;;;;;4.07;3.05;;;;;;;9.92;87.58;98214.59;5010065;28;20060;-74
2021/04/11 11:51:56;;;;;;;4.22;2.80;;;;;;;10.05;89.21;98208.50;5023483;28;20486;-77
2021/04/11 11:54:43;;;;;;;5.72;3.83;;;;;;;10.01;87.87;98208.25;4948216;28;20456;-75
2021/04/11 11:57:14;;;;;;;4.65;3.83;;;;;;;9.96;88.96;98210.22;4947041;29;20039;-74
2021/04/11 12:00:03;;;;;;;5.82;4.70;;;;;;;10.32;88.92;98211.56;5005240;28;20481;-76
2021/04/11 12:02:39;;;;;;;5.82;3.45;;;;;;;10.29;89.14;98212.13;5026845;28;20029;-77
2021/04/11 12:05:08;;;;;;;6.15;3.65;;;;;;;10.37;88.39;98213.44;5027507;28;20033;-77
2021/04/11 12:07:39;;;;;;;6.78;4.30;;;;;;;10.63;87.42;98203.88;5026412;28;20036;-76
2021/04/11 12:10:19;;;;;;;5.32;3.42;;;;;;;10.34;88.20;98209.34;5028800;28;20115;-77
2021/04/11 12:13:15;;;;;;;7.47;4.30;;;;;;;10.47;87.57;98211.41;5028646;28;20026;-76
2021/04/11 12:15:58;;;;;;;5.97;4.65;;;;;;;10.56;87.40;98209.69;5018786;28;20409;-74
2021/04/11 12:18:34;;;;;;;8.02;3.80;;;;;;;10.35;87.74;98205.50;5028268;28;20036;-78
2021/04/11 12:21:02;;;;;;;11.13;8.13;;;;;;;10.71;87.53;98206.00;5028854;28;20048;-77
2021/04/11 12:23:55;;;;;;;5.78;4.38;;;;;;;10.84;87.33;98209.97;5027269;28;20063;-76
2021/04/11 12:26:21;;;;;;;4.15;3.22;;;;;;;10.42;87.13;98203.28;5009513;28;20448;-76
2021/04/11 12:28:50;;;;;;;6.15;2.88;;;;;;;10.55;88.85;98197.13;5027516;28;20095;-76
2021/04/11 12:31:24;;;;;;;5.07;3.08;;;;;;;10.74;89.59;98194.47;5009956;28;20056;-78